Home   Weather   Belgium   Antwerp   Past weeks
Flag for Belgium

Past Weather in Antwerp, Belgium — Yesterday and Last 2 Weeks

Currently: 66 °F. Scattered clouds. (Weather station: Antwerp / Deurne, Belgium). See more current weather

Past Weather in Antwerp — Graph

°F

Antwerp Temperature Yesterday

Maximum temperature yesterday: 73 °F (at 5:20 pm)
Minimum temperature yesterday: 54 °F (at 2:50 am)
Average temperature yesterday: 64 °F

High & Low Weather Summary for the Past Weeks

 TemperatureHumidityPressure
High82 °F (Jun 23, 2:20 pm)94% (Jun 21, 6:20 am)30.21 "Hg (Jun 21, 6:20 am)
Low48 °F (Jun 21, 5:20 am)30% (Jun 22, 6:20 pm)29.71 "Hg (Jun 24, 2:20 pm)
Average65 °F66%29.99 "Hg
* Reported Jun 20 12:20 pm — Jul 5 12:20 pm, Antwerp. Weather by CustomWeather, © 2022

Note: Actual official high and low records may vary slightly from our data, if they occured in-between our weather recording intervals... More about our weather records

Antwerp Weather History for the Previous 24 Hours

Scroll right to see more
 ConditionsComfort  
Time TempWeatherWind HumidityBarometerVisibility
12:20 pm
Tue, Jul 5
68 °FPassing clouds.7 mph56%30.21 "HgN/A
11:50 am66 °FPassing clouds.6 mph56%30.21 "HgN/A
11:20 am66 °FPassing clouds.7 mph60%30.21 "HgN/A
10:50 am66 °FPassing clouds.6 mph64%30.21 "HgN/A
10:20 am66 °FPassing clouds.6 mph68%30.21 "HgN/A
9:20 am64 °FPassing clouds.3 mph73%30.21 "HgN/A
8:50 am63 °FPassing clouds.5 mph73%30.21 "HgN/A
8:20 am61 °FPassing clouds.5 mph77%30.21 "HgN/A
7:50 am59 °FPassing clouds.3 mph82%30.18 "HgN/A
6:50 am57 °FSunny.No wind82%30.18 "Hg10 mi
6:20 am52 °FDense fog.2 mph88%30.18 "Hg2 mi
5:50 am52 °FFog.2 mph88%30.18 "Hg1 mi
5:20 am57 °FLight fog.1 mph82%30.18 "Hg6 mi
4:50 am50 °FFog.1 mph94%30.15 "HgN/A
4:20 am52 °FLight fog.2 mph88%30.15 "Hg6 mi
3:50 am54 °FFog.2 mph88%30.15 "HgN/A
3:20 am54 °FFog.2 mph88%30.18 "HgN/A
2:50 am54 °FFog.1 mph88%30.18 "HgN/A
1:20 am55 °FFog.1 mph82%30.18 "HgN/A
12:50 am57 °FFog.1 mph77%30.18 "HgN/A
12:20 am61 °FFog.1 mph72%30.18 "HgN/A
11:50 pm
Mon, Jul 4
63 °FFog.3 mph68%30.18 "HgN/A
11:20 pm63 °FFog.5 mph68%30.15 "HgN/A
10:50 pm64 °FClear.6 mph64%30.15 "Hg10 mi
10:20 pm64 °FPassing clouds.7 mph60%30.15 "HgN/A
9:50 pm66 °FSunny.7 mph52%30.15 "Hg10 mi
9:20 pm66 °FPassing clouds.9 mph52%30.12 "HgN/A
8:50 pm66 °FScattered clouds.13 mph46%30.12 "HgN/A
8:20 pm68 °FSunny.15 mph43%30.12 "Hg10 mi
7:50 pm68 °FSunny.14 mph56%30.12 "Hg10 mi
7:20 pm70 °FSunny.14 mph57%30.12 "Hg10 mi
6:50 pm70 °FSunny.14 mph57%30.09 "Hg10 mi
6:20 pm72 °FSunny.9 mph53%30.09 "Hg10 mi
5:50 pm72 °FSunny.9 mph53%30.09 "Hg10 mi
5:20 pm73 °FPassing clouds.7 mph50%30.09 "HgN/A
4:50 pm72 °FPassing clouds.7 mph50%30.12 "HgN/A
3:20 pm70 °FPassing clouds.7 mph53%30.12 "HgN/A
2:50 pm72 °FPassing clouds.6 mph50%30.12 "HgN/A
2:20 pm70 °FPassing clouds.9 mph46%30.12 "HgN/A
Weather by CustomWeather, © 2022

See weather overview